sensor_id;sensor_type;location;lat;lon;timestamp;temperature;humidity
52543;DHT22;38449;52.696;6.186;2022-12-08T00:01:57;2.30;99.90
52543;DHT22;38449;52.696;6.186;2022-12-08T00:04:22;2.30;99.90
52543;DHT22;38449;52.696;6.186;2022-12-08T00:06:48;2.30;99.90
52543;DHT22;38449;52.696;6.186;2022-12-08T00:09:35;2.30;99.90
52543;DHT22;38449;52.696;6.186;2022-12-08T00:14:36;2.30;99.90
52543;DHT22;38449;52.696;6.186;2022-12-08T00:17:03;2.30;99.90
52543;DHT22;38449;52.696;6.186;2022-12-08T00:19:29;2.30;99.90
52543;DHT22;38449;52.696;6.186;2022-12-08T00:21:55;2.40;99.90
52543;DHT22;38449;52.696;6.186;2022-12-08T00:24:24;2.40;99.90
52543;DHT22;38449;52.696;6.186;2022-12-08T00:26:50;2.40;99.90
52543;DHT22;38449;52.696;6.186;2022-12-08T00:29:17;2.40;99.90
52543;DHT22;38449;52.696;6.186;2022-12-08T00:31:42;2.50;99.90
52543;DHT22;38449;52.696;6.186;2022-12-08T00:34:08;2.50;99.90
52543;DHT22;38449;52.696;6.186;2022-12-08T00:36:34;2.50;99.90
52543;DHT22;38449;52.696;6.186;2022-12-08T00:38:59;2.50;99.90
52543;DHT22;38449;52.696;6.186;2022-12-08T00:41:28;2.60;99.90
52543;DHT22;38449;52.696;6.186;2022-12-08T00:44:14;2.50;99.90
52543;DHT22;38449;52.696;6.186;2022-12-08T00:46:41;2.60;99.90
52543;DHT22;38449;52.696;6.186;2022-12-08T00:49:07;2.60;99.90
52543;DHT22;38449;52.696;6.186;2022-12-08T00:51:33;2.60;99.90
52543;DHT22;38449;52.696;6.186;2022-12-08T00:53:58;2.60;99.90
52543;DHT22;38449;52.696;6.186;2022-12-08T00:56:24;2.70;99.90
52543;DHT22;38449;52.696;6.186;2022-12-08T00:58:50;2.70;99.90
52543;DHT22;38449;52.696;6.186;2022-12-08T01:01:16;2.60;99.90
52543;DHT22;38449;52.696;6.186;2022-12-08T01:03:42;2.70;99.90
52543;DHT22;38449;52.696;6.186;2022-12-08T01:06:08;2.80;99.90
52543;DHT22;38449;52.696;6.186;2022-12-08T01:08:36;2.90;99.90
52543;DHT22;38449;52.696;6.186;2022-12-08T01:11:13;2.90;99.90
52543;DHT22;38449;52.696;6.186;2022-12-08T01:13:39;2.90;99.90
52543;DHT22;38449;52.696;6.186;2022-12-08T01:16:05;2.90;99.90
52543;DHT22;38449;52.696;6.186;2022-12-08T01:18:31;3.00;99.90
52543;DHT22;38449;52.696;6.186;2022-12-08T01:21:05;2.90;99.90
52543;DHT22;38449;52.696;6.186;2022-12-08T01:23:31;2.90;99.90
52543;DHT22;38449;52.696;6.186;2022-12-08T01:26:05;3.00;99.90
52543;DHT22;38449;52.696;6.186;2022-12-08T01:28:31;3.10;99.90
52543;DHT22;38449;52.696;6.186;2022-12-08T01:31:01;3.20;99.90
52543;DHT22;38449;52.696;6.186;2022-12-08T01:33:27;3.20;99.90
52543;DHT22;38449;52.696;6.186;2022-12-08T01:35:53;3.20;99.90
52543;DHT22;38449;52.696;6.186;2022-12-08T01:38:20;3.20;99.90
52543;DHT22;38449;52.696;6.186;2022-12-08T01:40:46;3.20;99.90
52543;DHT22;38449;52.696;6.186;2022-12-08T01:43:16;3.30;99.90
52543;DHT22;38449;52.696;6.186;2022-12-08T01:45:43;3.30;99.90
52543;DHT22;38449;52.696;6.186;2022-12-08T01:48:29;3.40;99.90
52543;DHT22;38449;52.696;6.186;2022-12-08T01:50:55;3.40;99.90
52543;DHT22;38449;52.696;6.186;2022-12-08T01:53:27;3.40;99.90
52543;DHT22;38449;52.696;6.186;2022-12-08T01:56:19;3.40;99.90
52543;DHT22;38449;52.696;6.186;2022-12-08T01:58:49;3.30;99.90
52543;DHT22;38449;52.696;6.186;2022-12-08T02:01:16;3.30;99.90
52543;DHT22;38449;52.696;6.186;2022-12-08T02:06:17;3.20;99.90
52543;DHT22;38449;52.696;6.186;2022-12-08T02:08:44;3.10;99.90
52543;DHT22;38449;52.696;6.186;2022-12-08T02:11:12;3.20;99.90
52543;DHT22;38449;52.696;6.186;2022-12-08T02:13:38;3.30;99.90
52543;DHT22;38449;52.696;6.186;2022-12-08T02:18:53;3.30;99.90
52543;DHT22;38449;52.696;6.186;2022-12-08T02:24:21;3.50;99.90
52543;DHT22;38449;52.696;6.186;2022-12-08T02:27:07;3.50;99.90
52543;DHT22;38449;52.696;6.186;2022-12-08T02:30:01;3.60;99.90
52543;DHT22;38449;52.696;6.186;2022-12-08T02:33:03;3.50;99.90
52543;DHT22;38449;52.696;6.186;2022-12-08T02:44:42;3.50;99.90
52543;DHT22;38449;52.696;6.186;2022-12-08T02:47:19;3.50;99.90
52543;DHT22;38449;52.696;6.186;2022-12-08T02:49:46;3.60;99.90
52543;DHT22;38449;52.696;6.186;2022-12-08T02:54:40;3.60;99.90
52543;DHT22;38449;52.696;6.186;2022-12-08T03:00:03;3.60;99.90
52543;DHT22;38449;52.696;6.186;2022-12-08T03:08:17;3.50;99.90
52543;DHT22;38449;52.696;6.186;2022-12-08T03:11:23;3.50;99.90
52543;DHT22;38449;52.696;6.186;2022-12-08T03:13:51;3.40;99.90
52543;DHT22;38449;52.696;6.186;2022-12-08T03:16:21;3.50;99.90
52543;DHT22;38449;52.696;6.186;2022-12-08T03:18:51;3.40;99.90
52543;DHT22;38449;52.696;6.186;2022-12-08T03:21:19;3.40;99.90
52543;DHT22;38449;52.696;6.186;2022-12-08T03:23:49;3.30;99.90
52543;DHT22;38449;52.696;6.186;2022-12-08T03:26:35;3.30;99.90
52543;DHT22;38449;52.696;6.186;2022-12-08T03:29:03;3.30;99.90
52543;DHT22;38449;52.696;6.186;2022-12-08T03:31:32;3.20;99.90
52543;DHT22;38449;52.696;6.186;2022-12-08T03:34:01;3.20;99.90
52543;DHT22;38449;52.696;6.186;2022-12-08T03:36:27;3.20;99.90
52543;DHT22;38449;52.696;6.186;2022-12-08T03:38:53;3.30;99.90
52543;DHT22;38449;52.696;6.186;2022-12-08T03:41:20;3.30;99.90
52543;DHT22;38449;52.696;6.186;2022-12-08T03:43:48;3.40;99.90
52543;DHT22;38449;52.696;6.186;2022-12-08T03:46:15;3.40;99.90
52543;DHT22;38449;52.696;6.186;2022-12-08T03:48:40;3.40;99.90
52543;DHT22;38449;52.696;6.186;2022-12-08T03:51:06;3.30;99.90
52543;DHT22;38449;52.696;6.186;2022-12-08T03:53:32;3.40;99.90
52543;DHT22;38449;52.696;6.186;2022-12-08T03:55:58;3.40;99.90
52543;DHT22;38449;52.696;6.186;2022-12-08T03:58:23;3.30;99.90
52543;DHT22;38449;52.696;6.186;2022-12-08T04:00:49;3.40;99.90
52543;DHT22;38449;52.696;6.186;2022-12-08T04:03:14;3.30;99.90
52543;DHT22;38449;52.696;6.186;2022-12-08T04:05:40;3.40;99.90
52543;DHT22;38449;52.696;6.186;2022-12-08T04:08:05;3.40;99.90
52543;DHT22;38449;52.696;6.186;2022-12-08T04:10:31;3.40;99.90
52543;DHT22;38449;52.696;6.186;2022-12-08T04:12:56;3.40;99.90
52543;DHT22;38449;52.696;6.186;2022-12-08T04:15:22;3.30;99.90
52543;DHT22;38449;52.696;6.186;2022-12-08T04:17:48;3.40;99.90
52543;DHT22;38449;52.696;6.186;2022-12-08T04:20:13;3.40;99.90
52543;DHT22;38449;52.696;6.186;2022-12-08T04:22:39;3.40;99.90
52543;DHT22;38449;52.696;6.186;2022-12-08T04:25:05;3.40;99.90
52543;DHT22;38449;52.696;6.186;2022-12-08T04:27:31;3.40;99.90
52543;DHT22;38449;52.696;6.186;2022-12-08T04:29:57;3.30;99.90
52543;DHT22;38449;52.696;6.186;2022-12-08T04:32:22;3.40;99.90
52543;DHT22;38449;52.696;6.186;2022-12-08T04:34:48;3.30;99.90
52543;DHT22;38449;52.696;6.186;2022-12-08T04:37:13;3.30;99.90
52543;DHT22;38449;52.696;6.186;2022-12-08T04:43:29;3.30;99.90
52543;DHT22;38449;52.696;6.186;2022-12-08T04:45:58;3.30;99.90
52543;DHT22;38449;52.696;6.186;2022-12-08T04:48:23;3.20;99.90
52543;DHT22;38449;52.696;6.186;2022-12-08T04:50:49;3.20;99.90
52543;DHT22;38449;52.696;6.186;2022-12-08T04:53:14;3.20;99.90
52543;DHT22;38449;52.696;6.186;2022-12-08T04:55:44;3.20;99.90
52543;DHT22;38449;52.696;6.186;2022-12-08T04:58:15;3.30;99.90
52543;DHT22;38449;52.696;6.186;2022-12-08T05:00:45;3.20;99.90
52543;DHT22;38449;52.696;6.186;2022-12-08T05:03:11;3.30;99.90
52543;DHT22;38449;52.696;6.186;2022-12-08T05:05:37;3.30;99.90
52543;DHT22;38449;52.696;6.186;2022-12-08T05:08:03;3.30;99.90
52543;DHT22;38449;52.696;6.186;2022-12-08T05:10:29;3.20;99.90
52543;DHT22;38449;52.696;6.186;2022-12-08T05:12:58;3.30;99.90
52543;DHT22;38449;52.696;6.186;2022-12-08T05:15:24;3.30;99.90
52543;DHT22;38449;52.696;6.186;2022-12-08T05:17:50;3.40;99.90
52543;DHT22;38449;52.696;6.186;2022-12-08T05:20:15;3.30;99.90
52543;DHT22;38449;52.696;6.186;2022-12-08T05:22:41;3.40;99.90
52543;DHT22;38449;52.696;6.186;2022-12-08T05:25:07;3.30;99.90
52543;DHT22;38449;52.696;6.186;2022-12-08T05:27:33;3.30;99.90
52543;DHT22;38449;52.696;6.186;2022-12-08T05:29:58;3.20;99.90
52543;DHT22;38449;52.696;6.186;2022-12-08T05:32:24;3.20;99.90
52543;DHT22;38449;52.696;6.186;2022-12-08T05:34:49;3.20;99.90
52543;DHT22;38449;52.696;6.186;2022-12-08T05:37:15;3.30;99.90
52543;DHT22;38449;52.696;6.186;2022-12-08T05:39:41;3.20;99.90
52543;DHT22;38449;52.696;6.186;2022-12-08T05:42:06;3.20;99.90
52543;DHT22;38449;52.696;6.186;2022-12-08T05:44:32;3.20;99.90
52543;DHT22;38449;52.696;6.186;2022-12-08T05:46:58;3.20;99.90
52543;DHT22;38449;52.696;6.186;2022-12-08T05:49:23;3.10;99.90
52543;DHT22;38449;52.696;6.186;2022-12-08T05:51:49;3.20;99.90
52543;DHT22;38449;52.696;6.186;2022-12-08T05:54:14;3.20;99.90
52543;DHT22;38449;52.696;6.186;2022-12-08T05:56:40;3.10;99.90
52543;DHT22;38449;52.696;6.186;2022-12-08T05:59:06;3.10;99.90
52543;DHT22;38449;52.696;6.186;2022-12-08T06:01:31;3.10;99.90
52543;DHT22;38449;52.696;6.186;2022-12-08T06:03:59;3.10;99.90
52543;DHT22;38449;52.696;6.186;2022-12-08T06:06:25;3.10;99.90
52543;DHT22;38449;52.696;6.186;2022-12-08T06:08:51;3.10;99.90
52543;DHT22;38449;52.696;6.186;2022-12-08T06:11:23;3.10;99.90
52543;DHT22;38449;52.696;6.186;2022-12-08T06:13:49;3.10;99.90
52543;DHT22;38449;52.696;6.186;2022-12-08T06:16:16;3.10;99.90
52543;DHT22;38449;52.696;6.186;2022-12-08T06:18:41;3.10;99.90
52543;DHT22;38449;52.696;6.186;2022-12-08T06:21:10;3.10;99.90
52543;DHT22;38449;52.696;6.186;2022-12-08T06:23:37;3.20;99.90
52543;DHT22;38449;52.696;6.186;2022-12-08T06:26:06;3.10;99.90
52543;DHT22;38449;52.696;6.186;2022-12-08T06:28:33;3.00;99.90
52543;DHT22;38449;52.696;6.186;2022-12-08T06:30:59;3.10;99.90
52543;DHT22;38449;52.696;6.186;2022-12-08T06:33:25;3.10;99.90
52543;DHT22;38449;52.696;6.186;2022-12-08T06:35:51;3.00;99.90
52543;DHT22;38449;52.696;6.186;2022-12-08T06:38:18;3.00;99.90
52543;DHT22;38449;52.696;6.186;2022-12-08T06:40:43;3.10;99.90
52543;DHT22;38449;52.696;6.186;2022-12-08T06:43:09;3.10;99.90
52543;DHT22;38449;52.696;6.186;2022-12-08T06:45:35;3.10;99.90
52543;DHT22;38449;52.696;6.186;2022-12-08T06:48:01;3.10;99.90
52543;DHT22;38449;52.696;6.186;2022-12-08T06:50:27;3.10;99.90
52543;DHT22;38449;52.696;6.186;2022-12-08T06:52:53;3.10;99.90
52543;DHT22;38449;52.696;6.186;2022-12-08T06:55:19;3.10;99.90
52543;DHT22;38449;52.696;6.186;2022-12-08T06:57:44;3.10;99.90
52543;DHT22;38449;52.696;6.186;2022-12-08T07:00:11;3.10;99.90
52543;DHT22;38449;52.696;6.186;2022-12-08T07:02:36;3.20;99.90
52543;DHT22;38449;52.696;6.186;2022-12-08T07:05:02;3.20;99.90
52543;DHT22;38449;52.696;6.186;2022-12-08T07:07:28;3.20;99.90
52543;DHT22;38449;52.696;6.186;2022-12-08T07:09:53;3.20;99.90
52543;DHT22;38449;52.696;6.186;2022-12-08T07:12:19;3.20;99.90
52543;DHT22;38449;52.696;6.186;2022-12-08T07:14:44;3.30;99.90
52543;DHT22;38449;52.696;6.186;2022-12-08T07:17:10;3.30;99.90
52543;DHT22;38449;52.696;6.186;2022-12-08T07:19:36;3.30;99.90
52543;DHT22;38449;52.696;6.186;2022-12-08T07:22:01;3.30;99.90
52543;DHT22;38449;52.696;6.186;2022-12-08T07:24:27;3.30;99.90
52543;DHT22;38449;52.696;6.186;2022-12-08T07:26:52;3.20;99.90
52543;DHT22;38449;52.696;6.186;2022-12-08T07:29:18;3.20;99.90
52543;DHT22;38449;52.696;6.186;2022-12-08T07:31:44;3.20;99.90
52543;DHT22;38449;52.696;6.186;2022-12-08T07:34:11;3.20;99.90
52543;DHT22;38449;52.696;6.186;2022-12-08T07:36:37;3.20;99.90
52543;DHT22;38449;52.696;6.186;2022-12-08T07:39:05;3.20;99.90
52543;DHT22;38449;52.696;6.186;2022-12-08T07:41:32;3.30;99.90
52543;DHT22;38449;52.696;6.186;2022-12-08T07:43:58;3.20;99.90
52543;DHT22;38449;52.696;6.186;2022-12-08T07:46:25;3.10;99.90
52543;DHT22;38449;52.696;6.186;2022-12-08T07:48:56;3.10;99.90
52543;DHT22;38449;52.696;6.186;2022-12-08T07:51:22;3.10;99.90
52543;DHT22;38449;52.696;6.186;2022-12-08T07:53:50;3.10;99.90
52543;DHT22;38449;52.696;6.186;2022-12-08T07:56:16;3.10;99.90
52543;DHT22;38449;52.696;6.186;2022-12-08T07:58:42;3.10;99.90
52543;DHT22;38449;52.696;6.186;2022-12-08T08:01:26;3.10;99.90
52543;DHT22;38449;52.696;6.186;2022-12-08T08:03:53;3.10;99.90
52543;DHT22;38449;52.696;6.186;2022-12-08T08:06:19;3.10;99.90
52543;DHT22;38449;52.696;6.186;2022-12-08T08:08:44;3.00;99.90
52543;DHT22;38449;52.696;6.186;2022-12-08T08:11:10;3.00;99.90
52543;DHT22;38449;52.696;6.186;2022-12-08T08:13:35;3.00;99.90
52543;DHT22;38449;52.696;6.186;2022-12-08T08:16:06;3.00;99.90
52543;DHT22;38449;52.696;6.186;2022-12-08T08:18:33;3.10;99.90
52543;DHT22;38449;52.696;6.186;2022-12-08T08:20:59;3.00;99.90
52543;DHT22;38449;52.696;6.186;2022-12-08T08:23:25;3.00;99.90
52543;DHT22;38449;52.696;6.186;2022-12-08T08:25:50;3.00;99.90
52543;DHT22;38449;52.696;6.186;2022-12-08T08:28:16;3.10;99.90
52543;DHT22;38449;52.696;6.186;2022-12-08T08:30:42;3.00;99.90
52543;DHT22;38449;52.696;6.186;2022-12-08T08:33:07;3.10;99.90
52543;DHT22;38449;52.696;6.186;2022-12-08T08:35:33;3.00;99.90
52543;DHT22;38449;52.696;6.186;2022-12-08T08:38:00;3.10;99.90
52543;DHT22;38449;52.696;6.186;2022-12-08T08:40:26;3.10;99.90
52543;DHT22;38449;52.696;6.186;2022-12-08T08:42:51;3.10;99.90
52543;DHT22;38449;52.696;6.186;2022-12-08T08:45:17;3.10;99.90
52543;DHT22;38449;52.696;6.186;2022-12-08T08:47:42;3.00;99.90
52543;DHT22;38449;52.696;6.186;2022-12-08T08:50:09;3.10;99.90
52543;DHT22;38449;52.696;6.186;2022-12-08T08:52:35;3.20;99.90
52543;DHT22;38449;52.696;6.186;2022-12-08T08:55:01;3.20;99.90
52543;DHT22;38449;52.696;6.186;2022-12-08T08:57:26;3.10;99.90
52543;DHT22;38449;52.696;6.186;2022-12-08T08:59:52;3.20;99.90
52543;DHT22;38449;52.696;6.186;2022-12-08T09:02:19;3.20;99.90
52543;DHT22;38449;52.696;6.186;2022-12-08T09:04:46;3.20;99.90
52543;DHT22;38449;52.696;6.186;2022-12-08T09:07:12;3.30;99.90
52543;DHT22;38449;52.696;6.186;2022-12-08T09:09:38;3.20;99.90
52543;DHT22;38449;52.696;6.186;2022-12-08T09:12:10;3.20;99.90
52543;DHT22;38449;52.696;6.186;2022-12-08T09:14:36;3.20;99.90
52543;DHT22;38449;52.696;6.186;2022-12-08T09:17:02;3.30;99.90
52543;DHT22;38449;52.696;6.186;2022-12-08T09:19:27;3.30;99.90
52543;DHT22;38449;52.696;6.186;2022-12-08T09:21:53;3.20;99.90
52543;DHT22;38449;52.696;6.186;2022-12-08T09:24:18;3.30;99.90
52543;DHT22;38449;52.696;6.186;2022-12-08T09:26:44;3.30;99.90
52543;DHT22;38449;52.696;6.186;2022-12-08T09:29:11;3.40;99.90
52543;DHT22;38449;52.696;6.186;2022-12-08T09:31:37;3.40;99.90
52543;DHT22;38449;52.696;6.186;2022-12-08T09:34:04;3.40;99.90
52543;DHT22;38449;52.696;6.186;2022-12-08T09:36:30;3.40;99.90
52543;DHT22;38449;52.696;6.186;2022-12-08T09:38:55;3.40;99.90
52543;DHT22;38449;52.696;6.186;2022-12-08T09:41:46;3.50;99.90
52543;DHT22;38449;52.696;6.186;2022-12-08T09:47:23;3.50;99.90
52543;DHT22;38449;52.696;6.186;2022-12-08T09:49:57;3.60;99.90
52543;DHT22;38449;52.696;6.186;2022-12-08T09:52:27;3.50;99.90
52543;DHT22;38449;52.696;6.186;2022-12-08T09:54:58;3.50;99.90
52543;DHT22;38449;52.696;6.186;2022-12-08T09:57:25;3.50;99.90
52543;DHT22;38449;52.696;6.186;2022-12-08T09:59:58;3.60;99.90
52543;DHT22;38449;52.696;6.186;2022-12-08T10:02:28;3.60;99.90
52543;DHT22;38449;52.696;6.186;2022-12-08T10:04:54;3.60;99.90
52543;DHT22;38449;52.696;6.186;2022-12-08T10:18:29;3.60;99.90
52543;DHT22;38449;52.696;6.186;2022-12-08T10:21:09;3.50;99.90
52543;DHT22;38449;52.696;6.186;2022-12-08T10:23:38;3.60;99.90
52543;DHT22;38449;52.696;6.186;2022-12-08T10:26:10;3.60;99.90
52543;DHT22;38449;52.696;6.186;2022-12-08T10:28:36;3.60;99.90
52543;DHT22;38449;52.696;6.186;2022-12-08T10:31:03;3.60;99.90
52543;DHT22;38449;52.696;6.186;2022-12-08T10:33:31;3.60;99.90
52543;DHT22;38449;52.696;6.186;2022-12-08T10:35:58;3.60;99.90
52543;DHT22;38449;52.696;6.186;2022-12-08T10:38:32;3.70;99.90
52543;DHT22;38449;52.696;6.186;2022-12-08T10:41:10;3.70;99.90
52543;DHT22;38449;52.696;6.186;2022-12-08T10:43:37;3.70;99.90
52543;DHT22;38449;52.696;6.186;2022-12-08T10:46:13;3.70;99.90
52543;DHT22;38449;52.696;6.186;2022-12-08T10:51:35;3.70;99.90
52543;DHT22;38449;52.696;6.186;2022-12-08T10:54:02;3.80;99.90
52543;DHT22;38449;52.696;6.186;2022-12-08T10:56:32;3.80;99.90
52543;DHT22;38449;52.696;6.186;2022-12-08T10:59:16;3.90;99.90
52543;DHT22;38449;52.696;6.186;2022-12-08T11:01:46;3.90;99.90
52543;DHT22;38449;52.696;6.186;2022-12-08T11:04:33;3.90;99.90
52543;DHT22;38449;52.696;6.186;2022-12-08T11:07:01;3.80;99.90
52543;DHT22;38449;52.696;6.186;2022-12-08T11:09:41;3.80;99.90
52543;DHT22;38449;52.696;6.186;2022-12-08T11:12:14;3.80;99.90
52543;DHT22;38449;52.696;6.186;2022-12-08T11:19:45;3.80;99.90
52543;DHT22;38449;52.696;6.186;2022-12-08T11:27:36;3.90;99.90
52543;DHT22;38449;52.696;6.186;2022-12-08T11:30:28;4.00;99.90
52543;DHT22;38449;52.696;6.186;2022-12-08T11:32:57;4.10;99.90
52543;DHT22;38449;52.696;6.186;2022-12-08T11:35:39;4.00;99.90
52543;DHT22;38449;52.696;6.186;2022-12-08T11:38:11;4.10;99.90
52543;DHT22;38449;52.696;6.186;2022-12-08T11:40:40;4.10;99.90
52543;DHT22;38449;52.696;6.186;2022-12-08T11:43:35;4.10;99.90
52543;DHT22;38449;52.696;6.186;2022-12-08T11:46:09;4.20;99.90
52543;DHT22;38449;52.696;6.186;2022-12-08T11:48:45;4.20;99.90
52543;DHT22;38449;52.696;6.186;2022-12-08T11:51:53;4.20;99.90
52543;DHT22;38449;52.696;6.186;2022-12-08T11:54:33;4.30;99.90
52543;DHT22;38449;52.696;6.186;2022-12-08T11:57:10;4.40;99.90
52543;DHT22;38449;52.696;6.186;2022-12-08T11:59:43;4.50;99.90
52543;DHT22;38449;52.696;6.186;2022-12-08T12:02:22;4.60;99.90
52543;DHT22;38449;52.696;6.186;2022-12-08T12:05:06;4.70;99.90
52543;DHT22;38449;52.696;6.186;2022-12-08T12:08:06;4.80;99.90
52543;DHT22;38449;52.696;6.186;2022-12-08T12:10:47;4.90;99.90
52543;DHT22;38449;52.696;6.186;2022-12-08T12:14:30;5.00;99.90
52543;DHT22;38449;52.696;6.186;2022-12-08T12:19:15;5.10;99.90
52543;DHT22;38449;52.696;6.186;2022-12-08T12:21:50;5.10;99.90
52543;DHT22;38449;52.696;6.186;2022-12-08T12:24:21;5.00;99.90
52543;DHT22;38449;52.696;6.186;2022-12-08T12:27:06;5.00;99.90
52543;DHT22;38449;52.696;6.186;2022-12-08T12:29:46;4.90;99.90
52543;DHT22;38449;52.696;6.186;2022-12-08T12:32:13;4.90;99.90
52543;DHT22;38449;52.696;6.186;2022-12-08T12:34:56;4.90;99.90
52543;DHT22;38449;52.696;6.186;2022-12-08T12:37:25;4.90;99.90
52543;DHT22;38449;52.696;6.186;2022-12-08T12:56:01;4.80;99.90
52543;DHT22;38449;52.696;6.186;2022-12-08T13:03:42;4.60;99.90
52543;DHT22;38449;52.696;6.186;2022-12-08T13:06:11;4.70;99.90
52543;DHT22;38449;52.696;6.186;2022-12-08T13:08:56;4.60;99.90
52543;DHT22;38449;52.696;6.186;2022-12-08T13:11:23;4.70;99.90
52543;DHT22;38449;52.696;6.186;2022-12-08T13:14:00;4.60;99.90
52543;DHT22;38449;52.696;6.186;2022-12-08T13:16:32;4.60;99.90
52543;DHT22;38449;52.696;6.186;2022-12-08T13:18:59;4.50;99.90
52543;DHT22;38449;52.696;6.186;2022-12-08T13:21:36;4.40;99.90
52543;DHT22;38449;52.696;6.186;2022-12-08T13:29:32;4.30;99.90
52543;DHT22;38449;52.696;6.186;2022-12-08T13:34:44;4.20;99.90
52543;DHT22;38449;52.696;6.186;2022-12-08T13:37:30;4.30;99.90
52543;DHT22;38449;52.696;6.186;2022-12-08T13:40:00;4.20;99.90
52543;DHT22;38449;52.696;6.186;2022-12-08T13:42:35;4.20;99.90
52543;DHT22;38449;52.696;6.186;2022-12-08T13:52:59;4.30;99.90
52543;DHT22;38449;52.696;6.186;2022-12-08T13:55:50;4.30;99.90
52543;DHT22;38449;52.696;6.186;2022-12-08T13:58:28;4.40;99.90
52543;DHT22;38449;52.696;6.186;2022-12-08T14:00:56;4.30;99.90
52543;DHT22;38449;52.696;6.186;2022-12-08T14:03:22;4.30;99.90
52543;DHT22;38449;52.696;6.186;2022-12-08T14:05:48;4.30;99.90
52543;DHT22;38449;52.696;6.186;2022-12-08T14:08:20;4.30;99.90
52543;DHT22;38449;52.696;6.186;2022-12-08T14:10:52;4.20;99.90
52543;DHT22;38449;52.696;6.186;2022-12-08T14:13:23;4.20;99.90
52543;DHT22;38449;52.696;6.186;2022-12-08T14:15:49;4.10;99.90
52543;DHT22;38449;52.696;6.186;2022-12-08T14:18:29;4.20;99.90
52543;DHT22;38449;52.696;6.186;2022-12-08T14:21:08;4.10;99.90
52543;DHT22;38449;52.696;6.186;2022-12-08T14:23:35;4.10;99.90
52543;DHT22;38449;52.696;6.186;2022-12-08T14:26:03;4.10;99.90
52543;DHT22;38449;52.696;6.186;2022-12-08T14:28:31;4.10;99.90
52543;DHT22;38449;52.696;6.186;2022-12-08T14:31:02;4.10;99.90
52543;DHT22;38449;52.696;6.186;2022-12-08T14:33:30;4.10;99.90
52543;DHT22;38449;52.696;6.186;2022-12-08T14:35:55;4.10;99.90
52543;DHT22;38449;52.696;6.186;2022-12-08T14:38:23;4.10;99.90
52543;DHT22;38449;52.696;6.186;2022-12-08T14:41:07;4.10;99.90
52543;DHT22;38449;52.696;6.186;2022-12-08T14:43:33;4.20;99.90
52543;DHT22;38449;52.696;6.186;2022-12-08T14:46:02;4.10;99.90
52543;DHT22;38449;52.696;6.186;2022-12-08T14:53:43;4.10;99.90
52543;DHT22;38449;52.696;6.186;2022-12-08T14:58:43;4.00;99.90
52543;DHT22;38449;52.696;6.186;2022-12-08T15:01:13;4.00;99.90
52543;DHT22;38449;52.696;6.186;2022-12-08T15:03:41;4.10;99.90
52543;DHT22;38449;52.696;6.186;2022-12-08T15:06:07;4.00;99.90
52543;DHT22;38449;52.696;6.186;2022-12-08T15:08:39;4.00;99.90
52543;DHT22;38449;52.696;6.186;2022-12-08T15:11:29;4.10;99.90
52543;DHT22;38449;52.696;6.186;2022-12-08T15:13:55;4.00;99.90
52543;DHT22;38449;52.696;6.186;2022-12-08T15:16:38;4.00;99.90
52543;DHT22;38449;52.696;6.186;2022-12-08T15:19:17;4.00;99.90
52543;DHT22;38449;52.696;6.186;2022-12-08T15:21:53;4.00;99.90
52543;DHT22;38449;52.696;6.186;2022-12-08T15:24:22;4.00;99.90
52543;DHT22;38449;52.696;6.186;2022-12-08T15:26:49;4.00;99.90
52543;DHT22;38449;52.696;6.186;2022-12-08T15:29:21;4.10;99.90
52543;DHT22;38449;52.696;6.186;2022-12-08T15:31:48;4.10;99.90
52543;DHT22;38449;52.696;6.186;2022-12-08T15:34:13;4.00;99.90
52543;DHT22;38449;52.696;6.186;2022-12-08T15:36:39;4.00;99.90
52543;DHT22;38449;52.696;6.186;2022-12-08T15:41:42;3.90;99.90
52543;DHT22;38449;52.696;6.186;2022-12-08T15:44:08;3.90;99.90
52543;DHT22;38449;52.696;6.186;2022-12-08T15:46:34;3.90;99.90
52543;DHT22;38449;52.696;6.186;2022-12-08T15:48:59;3.90;99.90
52543;DHT22;38449;52.696;6.186;2022-12-08T15:51:25;4.00;99.90
52543;DHT22;38449;52.696;6.186;2022-12-08T15:53:55;3.90;99.90
52543;DHT22;38449;52.696;6.186;2022-12-08T15:56:21;4.00;99.90
52543;DHT22;38449;52.696;6.186;2022-12-08T15:58:46;4.00;99.90
52543;DHT22;38449;52.696;6.186;2022-12-08T16:01:12;4.00;99.90
52543;DHT22;38449;52.696;6.186;2022-12-08T16:03:38;4.00;99.90
52543;DHT22;38449;52.696;6.186;2022-12-08T16:06:05;4.00;99.90
52543;DHT22;38449;52.696;6.186;2022-12-08T16:08:30;4.00;99.90
52543;DHT22;38449;52.696;6.186;2022-12-08T16:10:56;4.00;99.90
52543;DHT22;38449;52.696;6.186;2022-12-08T16:13:42;4.00;99.90
52543;DHT22;38449;52.696;6.186;2022-12-08T16:16:17;4.00;99.90
52543;DHT22;38449;52.696;6.186;2022-12-08T16:18:47;3.90;99.90
52543;DHT22;38449;52.696;6.186;2022-12-08T16:21:13;4.00;99.90
52543;DHT22;38449;52.696;6.186;2022-12-08T16:23:39;4.00;99.90
52543;DHT22;38449;52.696;6.186;2022-12-08T16:26:05;4.00;99.90
52543;DHT22;38449;52.696;6.186;2022-12-08T16:28:33;4.00;99.90
52543;DHT22;38449;52.696;6.186;2022-12-08T16:30:59;3.90;99.90
52543;DHT22;38449;52.696;6.186;2022-12-08T16:33:24;3.80;99.90
52543;DHT22;38449;52.696;6.186;2022-12-08T16:35:50;3.70;99.90
52543;DHT22;38449;52.696;6.186;2022-12-08T16:38:16;3.70;99.90
52543;DHT22;38449;52.696;6.186;2022-12-08T16:40:46;3.70;99.90
52543;DHT22;38449;52.696;6.186;2022-12-08T16:43:33;3.70;99.90
52543;DHT22;38449;52.696;6.186;2022-12-08T16:46:00;3.70;99.90
52543;DHT22;38449;52.696;6.186;2022-12-08T16:48:26;3.70;99.90
52543;DHT22;38449;52.696;6.186;2022-12-08T16:50:52;3.60;99.90
52543;DHT22;38449;52.696;6.186;2022-12-08T16:53:18;3.70;99.90
52543;DHT22;38449;52.696;6.186;2022-12-08T16:55:45;3.60;99.90
52543;DHT22;38449;52.696;6.186;2022-12-08T16:58:12;3.60;99.90
52543;DHT22;38449;52.696;6.186;2022-12-08T17:00:37;3.50;99.90
52543;DHT22;38449;52.696;6.186;2022-12-08T17:03:04;3.50;99.90
52543;DHT22;38449;52.696;6.186;2022-12-08T17:05:32;3.50;99.90
52543;DHT22;38449;52.696;6.186;2022-12-08T17:07:58;3.50;99.90
52543;DHT22;38449;52.696;6.186;2022-12-08T17:10:27;3.50;99.90
52543;DHT22;38449;52.696;6.186;2022-12-08T17:12:53;3.60;99.90
52543;DHT22;38449;52.696;6.186;2022-12-08T17:15:22;3.60;99.90
52543;DHT22;38449;52.696;6.186;2022-12-08T17:17:48;3.60;99.90
52543;DHT22;38449;52.696;6.186;2022-12-08T17:20:17;3.60;99.90
52543;DHT22;38449;52.696;6.186;2022-12-08T17:22:43;3.60;99.90
52543;DHT22;38449;52.696;6.186;2022-12-08T17:25:09;3.60;99.90
52543;DHT22;38449;52.696;6.186;2022-12-08T17:27:35;3.60;99.90
52543;DHT22;38449;52.696;6.186;2022-12-08T17:30:01;3.60;99.90
52543;DHT22;38449;52.696;6.186;2022-12-08T17:32:27;3.60;99.90
52543;DHT22;38449;52.696;6.186;2022-12-08T17:34:52;3.60;99.90
52543;DHT22;38449;52.696;6.186;2022-12-08T17:37:18;3.70;99.90
52543;DHT22;38449;52.696;6.186;2022-12-08T17:39:44;4.10;99.90
52543;DHT22;38449;52.696;6.186;2022-12-08T17:42:10;4.20;99.90
52543;DHT22;38449;52.696;6.186;2022-12-08T17:44:35;4.40;99.90
52543;DHT22;38449;52.696;6.186;2022-12-08T17:47:02;4.50;99.90
52543;DHT22;38449;52.696;6.186;2022-12-08T17:49:29;4.40;99.90
52543;DHT22;38449;52.696;6.186;2022-12-08T17:51:58;4.30;99.90